sensor_id;sensor_type;location;lat;lon;timestamp;temperature;humidity
21092;DHT22;10704;42.678;23.288;2024-03-22T00:01:46;7.20;74.20
21092;DHT22;10704;42.678;23.288;2024-03-22T00:04:12;7.10;75.00
21092;DHT22;10704;42.678;23.288;2024-03-22T00:06:40;7.00;75.20
21092;DHT22;10704;42.678;23.288;2024-03-22T00:09:06;6.90;75.40
21092;DHT22;10704;42.678;23.288;2024-03-22T00:11:32;6.90;76.20
21092;DHT22;10704;42.678;23.288;2024-03-22T00:13:59;7.00;75.80
21092;DHT22;10704;42.678;23.288;2024-03-22T00:16:25;7.20;75.00
21092;DHT22;10704;42.678;23.288;2024-03-22T00:18:51;7.20;74.80
21092;DHT22;10704;42.678;23.288;2024-03-22T00:21:17;7.20;75.60
21092;DHT22;10704;42.678;23.288;2024-03-22T00:23:44;7.20;76.20
21092;DHT22;10704;42.678;23.288;2024-03-22T00:26:11;7.10;76.70
21092;DHT22;10704;42.678;23.288;2024-03-22T00:28:37;6.90;76.80
21092;DHT22;10704;42.678;23.288;2024-03-22T00:31:03;6.80;78.30
21092;DHT22;10704;42.678;23.288;2024-03-22T00:33:29;6.80;78.60
21092;DHT22;10704;42.678;23.288;2024-03-22T00:35:55;6.80;78.70
21092;DHT22;10704;42.678;23.288;2024-03-22T00:38:21;6.70;79.90
21092;DHT22;10704;42.678;23.288;2024-03-22T00:40:47;6.50;81.30
21092;DHT22;10704;42.678;23.288;2024-03-22T00:43:13;6.30;82.90
21092;DHT22;10704;42.678;23.288;2024-03-22T00:45:38;6.10;84.80
21092;DHT22;10704;42.678;23.288;2024-03-22T00:48:05;6.00;86.60
21092;DHT22;10704;42.678;23.288;2024-03-22T00:50:31;6.00;88.40
21092;DHT22;10704;42.678;23.288;2024-03-22T00:52:57;5.90;89.20
21092;DHT22;10704;42.678;23.288;2024-03-22T00:55:23;5.90;89.80
21092;DHT22;10704;42.678;23.288;2024-03-22T00:57:49;5.90;90.10
21092;DHT22;10704;42.678;23.288;2024-03-22T01:00:16;6.00;89.50
21092;DHT22;10704;42.678;23.288;2024-03-22T01:02:44;5.90;89.80
21092;DHT22;10704;42.678;23.288;2024-03-22T01:05:10;6.00;90.10
21092;DHT22;10704;42.678;23.288;2024-03-22T01:07:37;6.00;89.50
21092;DHT22;10704;42.678;23.288;2024-03-22T01:10:06;5.90;90.60
21092;DHT22;10704;42.678;23.288;2024-03-22T01:12:32;5.70;91.50
21092;DHT22;10704;42.678;23.288;2024-03-22T01:14:58;5.60;92.20
21092;DHT22;10704;42.678;23.288;2024-03-22T01:17:24;5.50;93.10
21092;DHT22;10704;42.678;23.288;2024-03-22T01:19:51;5.60;93.70
21092;DHT22;10704;42.678;23.288;2024-03-22T01:22:18;5.70;93.10
21092;DHT22;10704;42.678;23.288;2024-03-22T01:24:44;5.60;93.20
21092;DHT22;10704;42.678;23.288;2024-03-22T01:27:11;5.60;93.40
21092;DHT22;10704;42.678;23.288;2024-03-22T01:29:37;5.60;93.50
21092;DHT22;10704;42.678;23.288;2024-03-22T01:32:03;5.60;93.30
21092;DHT22;10704;42.678;23.288;2024-03-22T01:34:29;5.70;93.60
21092;DHT22;10704;42.678;23.288;2024-03-22T01:36:55;5.60;94.20
21092;DHT22;10704;42.678;23.288;2024-03-22T01:39:22;5.60;94.50
21092;DHT22;10704;42.678;23.288;2024-03-22T01:41:49;5.50;95.30
21092;DHT22;10704;42.678;23.288;2024-03-22T01:44:15;5.50;97.00
21092;DHT22;10704;42.678;23.288;2024-03-22T01:46:41;5.40;97.20
21092;DHT22;10704;42.678;23.288;2024-03-22T01:49:09;5.50;97.60
21092;DHT22;10704;42.678;23.288;2024-03-22T01:51:39;5.70;97.00
21092;DHT22;10704;42.678;23.288;2024-03-22T01:54:09;5.80;96.60
21092;DHT22;10704;42.678;23.288;2024-03-22T01:56:38;5.80;96.60
21092;DHT22;10704;42.678;23.288;2024-03-22T01:59:05;5.70;96.70
21092;DHT22;10704;42.678;23.288;2024-03-22T02:01:34;5.70;95.90
21092;DHT22;10704;42.678;23.288;2024-03-22T02:04:01;5.60;96.60
21092;DHT22;10704;42.678;23.288;2024-03-22T02:06:27;5.50;96.30
21092;DHT22;10704;42.678;23.288;2024-03-22T02:08:53;5.40;96.80
21092;DHT22;10704;42.678;23.288;2024-03-22T02:11:19;5.40;97.70
21092;DHT22;10704;42.678;23.288;2024-03-22T02:13:46;5.20;99.00
21092;DHT22;10704;42.678;23.288;2024-03-22T02:16:12;5.20;99.50
21092;DHT22;10704;42.678;23.288;2024-03-22T02:18:38;5.20;99.90
21092;DHT22;10704;42.678;23.288;2024-03-22T02:21:04;5.10;99.90
21092;DHT22;10704;42.678;23.288;2024-03-22T02:23:33;5.30;99.90
21092;DHT22;10704;42.678;23.288;2024-03-22T02:26:00;5.30;99.90
21092;DHT22;10704;42.678;23.288;2024-03-22T02:28:27;5.30;99.90
21092;DHT22;10704;42.678;23.288;2024-03-22T02:30:53;5.20;99.90
21092;DHT22;10704;42.678;23.288;2024-03-22T02:33:19;5.20;99.90
21092;DHT22;10704;42.678;23.288;2024-03-22T02:35:49;5.40;99.90
21092;DHT22;10704;42.678;23.288;2024-03-22T02:38:15;5.50;99.90
21092;DHT22;10704;42.678;23.288;2024-03-22T02:40:43;5.30;99.90
21092;DHT22;10704;42.678;23.288;2024-03-22T02:43:10;5.40;99.90
21092;DHT22;10704;42.678;23.288;2024-03-22T02:45:36;5.30;99.90
21092;DHT22;10704;42.678;23.288;2024-03-22T02:48:02;5.10;99.90
21092;DHT22;10704;42.678;23.288;2024-03-22T02:50:32;5.10;99.90
21092;DHT22;10704;42.678;23.288;2024-03-22T02:52:58;5.00;99.90
21092;DHT22;10704;42.678;23.288;2024-03-22T02:55:24;4.90;99.90
21092;DHT22;10704;42.678;23.288;2024-03-22T02:57:50;5.00;99.90
21092;DHT22;10704;42.678;23.288;2024-03-22T03:00:16;4.90;99.90
21092;DHT22;10704;42.678;23.288;2024-03-22T03:02:42;5.10;99.90
21092;DHT22;10704;42.678;23.288;2024-03-22T03:05:08;5.20;99.90
21092;DHT22;10704;42.678;23.288;2024-03-22T03:07:34;5.40;99.90
21092;DHT22;10704;42.678;23.288;2024-03-22T03:10:00;5.50;99.90
21092;DHT22;10704;42.678;23.288;2024-03-22T03:12:26;5.50;99.90
21092;DHT22;10704;42.678;23.288;2024-03-22T03:14:52;5.70;99.90
21092;DHT22;10704;42.678;23.288;2024-03-22T03:17:18;5.60;99.90
21092;DHT22;10704;42.678;23.288;2024-03-22T03:19:44;5.50;99.90
21092;DHT22;10704;42.678;23.288;2024-03-22T03:22:10;5.40;99.90
21092;DHT22;10704;42.678;23.288;2024-03-22T03:24:37;5.30;99.90
21092;DHT22;10704;42.678;23.288;2024-03-22T03:27:03;5.10;99.90
21092;DHT22;10704;42.678;23.288;2024-03-22T03:29:29;4.90;99.90
21092;DHT22;10704;42.678;23.288;2024-03-22T03:31:54;4.70;99.90
21092;DHT22;10704;42.678;23.288;2024-03-22T03:34:20;4.60;99.90
21092;DHT22;10704;42.678;23.288;2024-03-22T03:36:47;4.40;99.90
21092;DHT22;10704;42.678;23.288;2024-03-22T03:39:13;4.30;99.90
21092;DHT22;10704;42.678;23.288;2024-03-22T03:41:39;4.30;99.90
21092;DHT22;10704;42.678;23.288;2024-03-22T03:44:05;4.40;99.90
21092;DHT22;10704;42.678;23.288;2024-03-22T03:46:31;4.50;99.90
21092;DHT22;10704;42.678;23.288;2024-03-22T03:48:57;4.60;99.90
21092;DHT22;10704;42.678;23.288;2024-03-22T03:51:23;4.40;99.90
21092;DHT22;10704;42.678;23.288;2024-03-22T03:53:49;4.00;99.90
21092;DHT22;10704;42.678;23.288;2024-03-22T03:56:15;3.80;99.90
21092;DHT22;10704;42.678;23.288;2024-03-22T03:58:41;3.70;99.90
21092;DHT22;10704;42.678;23.288;2024-03-22T04:01:08;3.50;99.90
21092;DHT22;10704;42.678;23.288;2024-03-22T04:03:34;3.50;99.90
21092;DHT22;10704;42.678;23.288;2024-03-22T04:06:00;3.40;99.90
21092;DHT22;10704;42.678;23.288;2024-03-22T04:08:27;3.60;99.90
21092;DHT22;10704;42.678;23.288;2024-03-22T04:10:53;3.70;99.90
21092;DHT22;10704;42.678;23.288;2024-03-22T04:13:21;3.90;99.90
21092;DHT22;10704;42.678;23.288;2024-03-22T04:15:47;4.20;99.90
21092;DHT22;10704;42.678;23.288;2024-03-22T04:18:13;4.40;99.90
21092;DHT22;10704;42.678;23.288;2024-03-22T04:20:39;4.30;99.90
21092;DHT22;10704;42.678;23.288;2024-03-22T04:23:05;4.10;99.90
21092;DHT22;10704;42.678;23.288;2024-03-22T04:25:31;4.20;99.90
21092;DHT22;10704;42.678;23.288;2024-03-22T04:27:57;4.40;99.90
21092;DHT22;10704;42.678;23.288;2024-03-22T04:30:23;4.30;99.90
21092;DHT22;10704;42.678;23.288;2024-03-22T04:32:49;4.30;99.90
21092;DHT22;10704;42.678;23.288;2024-03-22T04:35:15;4.10;99.90
21092;DHT22;10704;42.678;23.288;2024-03-22T04:37:41;4.10;99.90
21092;DHT22;10704;42.678;23.288;2024-03-22T04:40:07;4.00;99.90
21092;DHT22;10704;42.678;23.288;2024-03-22T04:42:35;4.00;99.90
21092;DHT22;10704;42.678;23.288;2024-03-22T04:45:01;3.90;99.90
21092;DHT22;10704;42.678;23.288;2024-03-22T04:47:27;3.90;99.90
21092;DHT22;10704;42.678;23.288;2024-03-22T04:49:53;3.90;99.90
21092;DHT22;10704;42.678;23.288;2024-03-22T04:52:19;4.00;99.90
21092;DHT22;10704;42.678;23.288;2024-03-22T04:54:45;4.00;99.90
21092;DHT22;10704;42.678;23.288;2024-03-22T04:57:13;4.00;99.90
21092;DHT22;10704;42.678;23.288;2024-03-22T04:59:39;4.20;99.90
21092;DHT22;10704;42.678;23.288;2024-03-22T05:02:05;4.50;99.90
21092;DHT22;10704;42.678;23.288;2024-03-22T05:04:31;4.60;99.90
21092;DHT22;10704;42.678;23.288;2024-03-22T05:06:57;4.50;99.90
21092;DHT22;10704;42.678;23.288;2024-03-22T05:09:23;4.40;99.90
21092;DHT22;10704;42.678;23.288;2024-03-22T05:11:49;4.60;99.90
21092;DHT22;10704;42.678;23.288;2024-03-22T05:14:18;4.80;99.90
21092;DHT22;10704;42.678;23.288;2024-03-22T05:16:45;5.30;99.90
21092;DHT22;10704;42.678;23.288;2024-03-22T05:19:11;5.60;99.90
21092;DHT22;10704;42.678;23.288;2024-03-22T05:21:56;5.80;99.90
21092;DHT22;10704;42.678;23.288;2024-03-22T05:24:22;6.30;99.90
21092;DHT22;10704;42.678;23.288;2024-03-22T05:26:47;6.40;99.90
21092;DHT22;10704;42.678;23.288;2024-03-22T05:29:13;6.50;99.90
21092;DHT22;10704;42.678;23.288;2024-03-22T05:31:48;6.60;99.90
21092;DHT22;10704;42.678;23.288;2024-03-22T05:34:14;6.70;99.90
21092;DHT22;10704;42.678;23.288;2024-03-22T05:36:41;7.00;99.90
21092;DHT22;10704;42.678;23.288;2024-03-22T05:39:07;6.70;99.90
21092;DHT22;10704;42.678;23.288;2024-03-22T05:41:33;6.60;99.90
21092;DHT22;10704;42.678;23.288;2024-03-22T05:43:59;6.80;99.90
21092;DHT22;10704;42.678;23.288;2024-03-22T05:46:25;6.80;99.90
21092;DHT22;10704;42.678;23.288;2024-03-22T05:48:51;7.00;99.90
21092;DHT22;10704;42.678;23.288;2024-03-22T05:51:17;6.80;99.90
21092;DHT22;10704;42.678;23.288;2024-03-22T05:53:44;6.70;99.90
21092;DHT22;10704;42.678;23.288;2024-03-22T05:56:10;6.70;99.90
21092;DHT22;10704;42.678;23.288;2024-03-22T05:58:35;6.90;99.90
21092;DHT22;10704;42.678;23.288;2024-03-22T06:01:02;6.90;99.90
21092;DHT22;10704;42.678;23.288;2024-03-22T06:03:29;7.00;99.90
21092;DHT22;10704;42.678;23.288;2024-03-22T06:05:55;7.10;99.90
21092;DHT22;10704;42.678;23.288;2024-03-22T06:08:28;7.10;99.90
21092;DHT22;10704;42.678;23.288;2024-03-22T06:10:55;7.10;99.90
21092;DHT22;10704;42.678;23.288;2024-03-22T06:13:21;7.30;99.90
21092;DHT22;10704;42.678;23.288;2024-03-22T06:15:50;7.30;99.90
21092;DHT22;10704;42.678;23.288;2024-03-22T06:18:17;7.60;99.90
21092;DHT22;10704;42.678;23.288;2024-03-22T06:20:43;7.80;99.90
21092;DHT22;10704;42.678;23.288;2024-03-22T06:23:09;7.80;99.90
21092;DHT22;10704;42.678;23.288;2024-03-22T06:25:36;7.80;99.90
21092;DHT22;10704;42.678;23.288;2024-03-22T06:28:02;7.80;99.90
21092;DHT22;10704;42.678;23.288;2024-03-22T06:30:28;7.70;99.10
21092;DHT22;10704;42.678;23.288;2024-03-22T06:32:54;7.80;99.00
21092;DHT22;10704;42.678;23.288;2024-03-22T06:35:21;7.80;99.80
21092;DHT22;10704;42.678;23.288;2024-03-22T06:37:48;8.10;99.50
21092;DHT22;10704;42.678;23.288;2024-03-22T06:40:15;8.30;97.60
21092;DHT22;10704;42.678;23.288;2024-03-22T06:42:41;8.50;96.10
21092;DHT22;10704;42.678;23.288;2024-03-22T06:45:07;8.40;95.20
21092;DHT22;10704;42.678;23.288;2024-03-22T06:47:33;8.60;95.00
21092;DHT22;10704;42.678;23.288;2024-03-22T06:49:59;8.60;94.30
21092;DHT22;10704;42.678;23.288;2024-03-22T06:52:25;8.70;94.50
21092;DHT22;10704;42.678;23.288;2024-03-22T06:54:51;8.80;94.70
21092;DHT22;10704;42.678;23.288;2024-03-22T06:57:19;8.80;94.40
21092;DHT22;10704;42.678;23.288;2024-03-22T06:59:44;8.80;94.50
21092;DHT22;10704;42.678;23.288;2024-03-22T07:02:11;8.90;94.40
21092;DHT22;10704;42.678;23.288;2024-03-22T07:04:38;9.00;93.40
21092;DHT22;10704;42.678;23.288;2024-03-22T07:07:04;9.40;93.50
21092;DHT22;10704;42.678;23.288;2024-03-22T07:09:33;9.60;92.20
21092;DHT22;10704;42.678;23.288;2024-03-22T07:11:59;9.90;91.00
21092;DHT22;10704;42.678;23.288;2024-03-22T07:14:25;10.30;91.10
21092;DHT22;10704;42.678;23.288;2024-03-22T07:16:51;10.50;89.50
21092;DHT22;10704;42.678;23.288;2024-03-22T07:19:20;10.70;87.50
21092;DHT22;10704;42.678;23.288;2024-03-22T07:21:47;11.00;86.40
21092;DHT22;10704;42.678;23.288;2024-03-22T07:24:13;11.30;82.60
21092;DHT22;10704;42.678;23.288;2024-03-22T07:26:39;11.80;85.50
21092;DHT22;10704;42.678;23.288;2024-03-22T07:29:05;11.90;80.60
21092;DHT22;10704;42.678;23.288;2024-03-22T07:31:31;11.90;79.80
21092;DHT22;10704;42.678;23.288;2024-03-22T07:33:56;12.20;79.50
21092;DHT22;10704;42.678;23.288;2024-03-22T07:36:22;12.40;76.70
21092;DHT22;10704;42.678;23.288;2024-03-22T07:38:48;12.70;76.60
21092;DHT22;10704;42.678;23.288;2024-03-22T07:41:15;12.90;76.60
21092;DHT22;10704;42.678;23.288;2024-03-22T07:43:41;12.90;74.10
21092;DHT22;10704;42.678;23.288;2024-03-22T07:46:07;12.60;72.60
21092;DHT22;10704;42.678;23.288;2024-03-22T07:48:33;13.00;73.10
21092;DHT22;10704;42.678;23.288;2024-03-22T07:50:59;13.00;71.50
21092;DHT22;10704;42.678;23.288;2024-03-22T07:53:25;13.10;71.40
21092;DHT22;10704;42.678;23.288;2024-03-22T07:55:51;13.00;72.00
21092;DHT22;10704;42.678;23.288;2024-03-22T07:58:17;13.30;70.50
21092;DHT22;10704;42.678;23.288;2024-03-22T08:00:43;13.50;69.70
21092;DHT22;10704;42.678;23.288;2024-03-22T08:03:14;13.60;68.60
21092;DHT22;10704;42.678;23.288;2024-03-22T08:05:41;13.90;67.80
21092;DHT22;10704;42.678;23.288;2024-03-22T08:08:06;14.10;66.10
21092;DHT22;10704;42.678;23.288;2024-03-22T08:10:33;14.30;66.10
21092;DHT22;10704;42.678;23.288;2024-03-22T08:12:59;14.70;64.10
21092;DHT22;10704;42.678;23.288;2024-03-22T08:15:26;14.90;63.30
21092;DHT22;10704;42.678;23.288;2024-03-22T08:17:53;15.10;62.60
21092;DHT22;10704;42.678;23.288;2024-03-22T08:20:19;15.10;61.40
21092;DHT22;10704;42.678;23.288;2024-03-22T08:22:45;15.30;61.30
21092;DHT22;10704;42.678;23.288;2024-03-22T08:25:11;15.70;59.60
21092;DHT22;10704;42.678;23.288;2024-03-22T08:27:38;16.00;58.90
21092;DHT22;10704;42.678;23.288;2024-03-22T08:30:04;16.30;57.80
21092;DHT22;10704;42.678;23.288;2024-03-22T08:32:30;16.40;56.90
21092;DHT22;10704;42.678;23.288;2024-03-22T08:34:56;16.70;56.50
21092;DHT22;10704;42.678;23.288;2024-03-22T08:37:22;16.80;55.10
21092;DHT22;10704;42.678;23.288;2024-03-22T08:39:48;16.80;55.30
21092;DHT22;10704;42.678;23.288;2024-03-22T08:42:14;16.70;55.20
21092;DHT22;10704;42.678;23.288;2024-03-22T08:44:40;16.40;55.10
21092;DHT22;10704;42.678;23.288;2024-03-22T08:47:06;17.10;54.60
21092;DHT22;10704;42.678;23.288;2024-03-22T08:49:32;17.30;53.30
21092;DHT22;10704;42.678;23.288;2024-03-22T08:51:58;18.00;52.40
21092;DHT22;10704;42.678;23.288;2024-03-22T08:54:24;18.50;50.90
21092;DHT22;10704;42.678;23.288;2024-03-22T08:56:50;18.60;49.90
21092;DHT22;10704;42.678;23.288;2024-03-22T08:59:16;18.50;49.80
21092;DHT22;10704;42.678;23.288;2024-03-22T09:01:42;18.40;49.80
21092;DHT22;10704;42.678;23.288;2024-03-22T09:04:07;18.10;49.70
21092;DHT22;10704;42.678;23.288;2024-03-22T09:06:33;18.20;49.50
21092;DHT22;10704;42.678;23.288;2024-03-22T09:08:59;18.50;50.30
21092;DHT22;10704;42.678;23.288;2024-03-22T09:11:25;18.10;49.30
21092;DHT22;10704;42.678;23.288;2024-03-22T09:13:52;18.90;48.30
21092;DHT22;10704;42.678;23.288;2024-03-22T09:16:20;19.10;47.10
21092;DHT22;10704;42.678;23.288;2024-03-22T09:18:46;19.40;47.30
21092;DHT22;10704;42.678;23.288;2024-03-22T09:21:12;19.90;46.20
21092;DHT22;10704;42.678;23.288;2024-03-22T09:23:38;19.30;46.50
21092;DHT22;10704;42.678;23.288;2024-03-22T09:26:04;19.90;46.20
21092;DHT22;10704;42.678;23.288;2024-03-22T09:28:30;20.60;46.00
21092;DHT22;10704;42.678;23.288;2024-03-22T09:30:55;21.10;44.50
21092;DHT22;10704;42.678;23.288;2024-03-22T09:33:22;20.90;43.70
21092;DHT22;10704;42.678;23.288;2024-03-22T09:35:48;21.00;43.90
21092;DHT22;10704;42.678;23.288;2024-03-22T09:38:14;20.80;44.30
21092;DHT22;10704;42.678;23.288;2024-03-22T09:40:44;21.30;43.40
21092;DHT22;10704;42.678;23.288;2024-03-22T09:43:11;21.80;42.30
21092;DHT22;10704;42.678;23.288;2024-03-22T09:45:41;21.40;42.00
21092;DHT22;10704;42.678;23.288;2024-03-22T09:48:08;21.90;42.10
21092;DHT22;10704;42.678;23.288;2024-03-22T09:50:35;22.80;40.70
21092;DHT22;10704;42.678;23.288;2024-03-22T09:53:01;23.10;40.30
21092;DHT22;10704;42.678;23.288;2024-03-22T09:55:29;23.40;40.00
21092;DHT22;10704;42.678;23.288;2024-03-22T09:57:55;23.50;39.30
21092;DHT22;10704;42.678;23.288;2024-03-22T10:00:22;23.60;38.70
21092;DHT22;10704;42.678;23.288;2024-03-22T10:02:50;23.20;39.00
21092;DHT22;10704;42.678;23.288;2024-03-22T10:05:16;23.00;39.20
21092;DHT22;10704;42.678;23.288;2024-03-22T10:07:43;23.20;39.20
21092;DHT22;10704;42.678;23.288;2024-03-22T10:10:10;23.70;38.40
21092;DHT22;10704;42.678;23.288;2024-03-22T10:12:36;22.90;38.00
21092;DHT22;10704;42.678;23.288;2024-03-22T10:15:02;21.30;40.40
21092;DHT22;10704;42.678;23.288;2024-03-22T10:17:30;20.80;41.90
21092;DHT22;10704;42.678;23.288;2024-03-22T10:19:56;21.10;42.10
21092;DHT22;10704;42.678;23.288;2024-03-22T10:22:22;21.30;40.80
21092;DHT22;10704;42.678;23.288;2024-03-22T10:24:49;20.50;41.90
21092;DHT22;10704;42.678;23.288;2024-03-22T10:27:15;21.30;41.80
21092;DHT22;10704;42.678;23.288;2024-03-22T10:29:43;22.50;40.40
21092;DHT22;10704;42.678;23.288;2024-03-22T10:32:10;23.10;38.80
21092;DHT22;10704;42.678;23.288;2024-03-22T10:34:36;22.70;38.60
21092;DHT22;10704;42.678;23.288;2024-03-22T10:37:03;23.40;38.60
21092;DHT22;10704;42.678;23.288;2024-03-22T10:39:30;24.20;37.30
21092;DHT22;10704;42.678;23.288;2024-03-22T10:41:56;22.80;37.70
21092;DHT22;10704;42.678;23.288;2024-03-22T10:44:22;22.20;39.20
21092;DHT22;10704;42.678;23.288;2024-03-22T10:46:49;22.30;39.10
21092;DHT22;10704;42.678;23.288;2024-03-22T10:49:19;22.70;38.00
21092;DHT22;10704;42.678;23.288;2024-03-22T10:51:52;23.00;37.90
21092;DHT22;10704;42.678;23.288;2024-03-22T10:54:26;23.00;37.30
21092;DHT22;10704;42.678;23.288;2024-03-22T10:56:53;23.00;37.30
21092;DHT22;10704;42.678;23.288;2024-03-22T10:59:23;23.30;37.80
21092;DHT22;10704;42.678;23.288;2024-03-22T11:01:49;23.90;35.80
21092;DHT22;10704;42.678;23.288;2024-03-22T11:04:17;24.30;35.90
21092;DHT22;10704;42.678;23.288;2024-03-22T11:06:52;24.30;35.90
21092;DHT22;10704;42.678;23.288;2024-03-22T11:09:21;24.30;35.40
21092;DHT22;10704;42.678;23.288;2024-03-22T11:11:49;22.80;36.30
21092;DHT22;10704;42.678;23.288;2024-03-22T11:14:17;23.60;36.70
21092;DHT22;10704;42.678;23.288;2024-03-22T11:16:44;23.50;36.30
21092;DHT22;10704;42.678;23.288;2024-03-22T11:19:10;23.90;36.10
21092;DHT22;10704;42.678;23.288;2024-03-22T11:21:36;23.20;36.40
21092;DHT22;10704;42.678;23.288;2024-03-22T11:24:03;22.00;37.80
21092;DHT22;10704;42.678;23.288;2024-03-22T11:26:29;21.90;38.60
21092;DHT22;10704;42.678;23.288;2024-03-22T11:28:55;22.50;38.00
21092;DHT22;10704;42.678;23.288;2024-03-22T11:31:22;22.90;37.80
21092;DHT22;10704;42.678;23.288;2024-03-22T11:33:56;23.30;36.90
21092;DHT22;10704;42.678;23.288;2024-03-22T11:36:23;23.60;35.90
21092;DHT22;10704;42.678;23.288;2024-03-22T11:38:49;23.30;36.30
21092;DHT22;10704;42.678;23.288;2024-03-22T11:41:25;22.70;36.50
21092;DHT22;10704;42.678;23.288;2024-03-22T11:43:54;22.70;36.50
21092;DHT22;10704;42.678;23.288;2024-03-22T11:46:39;22.20;36.80
21092;DHT22;10704;42.678;23.288;2024-03-22T11:49:05;20.90;38.20
21092;DHT22;10704;42.678;23.288;2024-03-22T11:51:31;19.90;39.70
21092;DHT22;10704;42.678;23.288;2024-03-22T11:53:58;19.20;40.00
21092;DHT22;10704;42.678;23.288;2024-03-22T11:56:25;19.60;40.10
21092;DHT22;10704;42.678;23.288;2024-03-22T11:58:58;19.20;40.90
21092;DHT22;10704;42.678;23.288;2024-03-22T12:01:25;19.70;40.20
21092;DHT22;10704;42.678;23.288;2024-03-22T12:03:51;20.00;39.90
21092;DHT22;10704;42.678;23.288;2024-03-22T12:06:17;20.50;39.00
21092;DHT22;10704;42.678;23.288;2024-03-22T12:08:43;20.40;39.10
21092;DHT22;10704;42.678;23.288;2024-03-22T12:11:10;21.00;39.20
21092;DHT22;10704;42.678;23.288;2024-03-22T12:13:38;21.60;38.00
21092;DHT22;10704;42.678;23.288;2024-03-22T12:16:04;22.20;37.00
21092;DHT22;10704;42.678;23.288;2024-03-22T12:18:31;22.20;36.90
21092;DHT22;10704;42.678;23.288;2024-03-22T12:20:57;22.30;37.80
21092;DHT22;10704;42.678;23.288;2024-03-22T12:23:23;21.90;36.80
21092;DHT22;10704;42.678;23.288;2024-03-22T12:25:51;21.40;38.10
21092;DHT22;10704;42.678;23.288;2024-03-22T12:28:18;20.40;38.70
21092;DHT22;10704;42.678;23.288;2024-03-22T12:30:44;20.20;39.50
21092;DHT22;10704;42.678;23.288;2024-03-22T12:33:10;19.50;40.00
21092;DHT22;10704;42.678;23.288;2024-03-22T12:35:42;19.10;43.50
21092;DHT22;10704;42.678;23.288;2024-03-22T12:38:08;18.80;40.90
21092;DHT22;10704;42.678;23.288;2024-03-22T12:40:39;19.00;41.90
21092;DHT22;10704;42.678;23.288;2024-03-22T12:43:06;19.50;40.70
21092;DHT22;10704;42.678;23.288;2024-03-22T12:45:32;19.80;41.30
21092;DHT22;10704;42.678;23.288;2024-03-22T12:48:01;20.00;42.20
21092;DHT22;10704;42.678;23.288;2024-03-22T12:50:27;20.40;39.10
21092;DHT22;10704;42.678;23.288;2024-03-22T12:52:53;19.90;40.10
21092;DHT22;10704;42.678;23.288;2024-03-22T12:55:19;19.10;41.20
21092;DHT22;10704;42.678;23.288;2024-03-22T12:57:45;18.70;42.00
21092;DHT22;10704;42.678;23.288;2024-03-22T13:00:12;18.60;42.00
21092;DHT22;10704;42.678;23.288;2024-03-22T13:02:47;18.60;42.00
21092;DHT22;10704;42.678;23.288;2024-03-22T13:05:13;18.70;42.00
21092;DHT22;10704;42.678;23.288;2024-03-22T13:07:41;19.40;41.20
21092;DHT22;10704;42.678;23.288;2024-03-22T13:10:08;19.50;39.70
21092;DHT22;10704;42.678;23.288;2024-03-22T13:12:34;18.60;39.90
21092;DHT22;10704;42.678;23.288;2024-03-22T13:15:01;17.40;40.80
21092;DHT22;10704;42.678;23.288;2024-03-22T13:17:27;17.20;42.80
21092;DHT22;10704;42.678;23.288;2024-03-22T13:19:53;17.30;43.00
21092;DHT22;10704;42.678;23.288;2024-03-22T13:22:19;17.80;42.90
21092;DHT22;10704;42.678;23.288;2024-03-22T13:24:47;18.70;41.60
21092;DHT22;10704;42.678;23.288;2024-03-22T13:27:13;19.10;41.40
21092;DHT22;10704;42.678;23.288;2024-03-22T13:29:42;19.50;40.20
21092;DHT22;10704;42.678;23.288;2024-03-22T13:32:09;19.80;40.00
21092;DHT22;10704;42.678;23.288;2024-03-22T13:34:35;19.90;39.60
21092;DHT22;10704;42.678;23.288;2024-03-22T13:37:02;20.00;39.70
21092;DHT22;10704;42.678;23.288;2024-03-22T13:39:28;19.80;39.50
21092;DHT22;10704;42.678;23.288;2024-03-22T13:41:57;20.30;38.70
21092;DHT22;10704;42.678;23.288;2024-03-22T13:44:24;20.00;38.40
21092;DHT22;10704;42.678;23.288;2024-03-22T13:46:52;19.80;38.90
21092;DHT22;10704;42.678;23.288;2024-03-22T13:49:19;20.00;38.20
21092;DHT22;10704;42.678;23.288;2024-03-22T13:51:49;20.10;38.60
21092;DHT22;10704;42.678;23.288;2024-03-22T13:54:15;19.20;39.00
21092;DHT22;10704;42.678;23.288;2024-03-22T13:56:42;18.90;39.70
21092;DHT22;10704;42.678;23.288;2024-03-22T13:59:08;19.20;39.30
21092;DHT22;10704;42.678;23.288;2024-03-22T14:01:37;19.50;40.00
21092;DHT22;10704;42.678;23.288;2024-03-22T14:04:06;20.50;39.20
21092;DHT22;10704;42.678;23.288;2024-03-22T14:06:33;20.70;37.40
21092;DHT22;10704;42.678;23.288;2024-03-22T14:08:59;20.00;37.90
21092;DHT22;10704;42.678;23.288;2024-03-22T14:11:33;20.00;38.60
21092;DHT22;10704;42.678;23.288;2024-03-22T14:13:59;20.10;38.90
21092;DHT22;10704;42.678;23.288;2024-03-22T14:16:25;20.40;38.00
21092;DHT22;10704;42.678;23.288;2024-03-22T14:18:52;20.90;37.00
21092;DHT22;10704;42.678;23.288;2024-03-22T14:21:18;20.60;36.50
21092;DHT22;10704;42.678;23.288;2024-03-22T14:23:49;20.30;37.70
21092;DHT22;10704;42.678;23.288;2024-03-22T14:26:16;20.20;37.80
21092;DHT22;10704;42.678;23.288;2024-03-22T14:28:42;20.60;37.20
21092;DHT22;10704;42.678;23.288;2024-03-22T14:31:09;20.10;36.50
21092;DHT22;10704;42.678;23.288;2024-03-22T14:33:35;20.20;37.00
21092;DHT22;10704;42.678;23.288;2024-03-22T14:36:02;20.40;37.20
21092;DHT22;10704;42.678;23.288;2024-03-22T14:38:28;21.10;36.50
21092;DHT22;10704;42.678;23.288;2024-03-22T14:40:55;21.40;37.00
21092;DHT22;10704;42.678;23.288;2024-03-22T14:43:24;21.80;36.70
21092;DHT22;10704;42.678;23.288;2024-03-22T14:45:54;21.80;36.80
21092;DHT22;10704;42.678;23.288;2024-03-22T14:48:23;21.70;36.90
21092;DHT22;10704;42.678;23.288;2024-03-22T14:50:50;21.10;37.50
21092;DHT22;10704;42.678;23.288;2024-03-22T14:53:17;21.00;37.90
21092;DHT22;10704;42.678;23.288;2024-03-22T14:55:55;21.30;37.50
21092;DHT22;10704;42.678;23.288;2024-03-22T14:58:25;21.40;37.40
21092;DHT22;10704;42.678;23.288;2024-03-22T15:00:56;21.30;37.40
21092;DHT22;10704;42.678;23.288;2024-03-22T15:03:23;21.20;37.10
21092;DHT22;10704;42.678;23.288;2024-03-22T15:05:51;20.20;38.10
21092;DHT22;10704;42.678;23.288;2024-03-22T15:08:18;20.20;38.50
21092;DHT22;10704;42.678;23.288;2024-03-22T15:10:44;19.60;38.80
21092;DHT22;10704;42.678;23.288;2024-03-22T15:13:10;19.90;39.00
21092;DHT22;10704;42.678;23.288;2024-03-22T15:15:36;20.50;38.20
21092;DHT22;10704;42.678;23.288;2024-03-22T15:18:04;20.70;37.30
21092;DHT22;10704;42.678;23.288;2024-03-22T15:20:31;21.10;37.10